createdAt,value
2022-10-18T00:07:34.000Z,7.77
2022-10-18T00:12:35.000Z,7.66
2022-10-18T00:17:34.000Z,7.61
2022-10-18T00:22:35.000Z,7.68
2022-10-18T00:27:35.000Z,7.72
2022-10-18T00:32:35.000Z,7.77
2022-10-18T00:37:34.000Z,7.75
2022-10-18T00:42:35.000Z,7.85
2022-10-18T00:47:34.000Z,7.97
2022-10-18T00:52:35.000Z,7.99
2022-10-18T00:57:34.000Z,7.98
2022-10-18T01:02:35.000Z,7.94
2022-10-18T01:07:34.000Z,7.87
2022-10-18T01:12:34.000Z,7.87
2022-10-18T01:17:34.000Z,7.74
2022-10-18T01:22:35.000Z,7.68
2022-10-18T01:27:35.000Z,7.66
2022-10-18T01:32:35.000Z,7.64
2022-10-18T01:37:34.000Z,7.65
2022-10-18T01:42:35.000Z,7.65
2022-10-18T01:47:35.000Z,7.56
2022-10-18T01:52:34.000Z,7.53
2022-10-18T01:57:35.000Z,7.56
2022-10-18T02:02:35.000Z,7.67
2022-10-18T02:07:34.000Z,7.74
2022-10-18T02:12:34.000Z,7.76
2022-10-18T02:17:34.000Z,7.78
2022-10-18T02:22:34.000Z,7.81
2022-10-18T02:27:35.000Z,7.81
2022-10-18T02:32:34.000Z,7.88
2022-10-18T02:37:35.000Z,7.92
2022-10-18T02:42:34.000Z,7.98
2022-10-18T02:47:35.000Z,7.97
2022-10-18T02:52:34.000Z,8.02
2022-10-18T02:57:34.000Z,8.01
2022-10-18T03:02:35.000Z,7.99
2022-10-18T03:07:34.000Z,8.03
2022-10-18T03:12:35.000Z,8.08
2022-10-18T03:17:34.000Z,8.05
2022-10-18T03:22:35.000Z,7.98
2022-10-18T03:27:34.000Z,7.96
2022-10-18T03:32:35.000Z,7.88
2022-10-18T03:37:35.000Z,7.89
2022-10-18T03:42:35.000Z,7.89
2022-10-18T03:47:34.000Z,7.89
2022-10-18T03:52:34.000Z,7.91
2022-10-18T03:57:35.000Z,7.88
2022-10-18T04:02:35.000Z,7.84
2022-10-18T04:12:34.000Z,7.73
2022-10-18T04:17:35.000Z,7.77
2022-10-18T04:22:34.000Z,7.81
2022-10-18T04:27:35.000Z,7.88
2022-10-18T04:32:35.000Z,7.94
2022-10-18T04:37:35.000Z,7.94
2022-10-18T04:42:34.000Z,7.97
2022-10-18T04:47:35.000Z,8.05
2022-10-18T04:52:34.000Z,8.09
2022-10-18T04:57:34.000Z,8.16
2022-10-18T05:02:34.000Z,8.21
2022-10-18T05:07:35.000Z,8.42
2022-10-18T05:12:34.000Z,8.6
2022-10-18T05:17:34.000Z,8.6
2022-10-18T05:22:35.000Z,8.56
2022-10-18T05:27:35.000Z,8.59
2022-10-18T05:32:35.000Z,8.6
2022-10-18T05:37:38.000Z,8.61
2022-10-18T05:42:35.000Z,8.59
2022-10-18T05:52:34.000Z,8.53
2022-10-18T05:57:34.000Z,8.6
2022-10-18T06:02:35.000Z,8.58
2022-10-18T06:07:35.000Z,8.66
2022-10-18T06:12:35.000Z,8.64
2022-10-18T06:17:40.000Z,8.64
2022-10-18T06:22:35.000Z,8.64
2022-10-18T06:27:34.000Z,8.7
2022-10-18T06:37:34.000Z,8.68
2022-10-18T06:42:34.000Z,8.79
2022-10-18T06:47:34.000Z,8.76
2022-10-18T06:52:34.000Z,8.83
2022-10-18T06:57:35.000Z,8.86
2022-10-18T07:02:34.000Z,8.84
2022-10-18T07:07:35.000Z,8.84
2022-10-18T07:12:34.000Z,8.85
2022-10-18T07:17:34.000Z,8.87
2022-10-18T07:22:40.000Z,8.86
2022-10-18T07:27:35.000Z,8.9
2022-10-18T07:32:35.000Z,8.9
2022-10-18T07:37:40.000Z,8.85
2022-10-18T07:42:35.000Z,8.88
2022-10-18T07:47:34.000Z,8.81
2022-10-18T07:52:35.000Z,8.85
2022-10-18T07:57:34.000Z,8.97
2022-10-18T08:07:35.000Z,8.97
2022-10-18T08:12:34.000Z,8.95
2022-10-18T08:17:35.000Z,8.99
2022-10-18T08:22:35.000Z,9
2022-10-18T08:27:34.000Z,8.89
2022-10-18T08:32:34.000Z,8.66
2022-10-18T08:37:35.000Z,8.73
2022-10-18T08:42:35.000Z,8.67
2022-10-18T08:47:35.000Z,8.53
2022-10-18T08:52:35.000Z,8.53
2022-10-18T08:57:35.000Z,8.36
2022-10-18T09:02:34.000Z,8.21
2022-10-18T09:07:35.000Z,8.22
2022-10-18T09:12:34.000Z,8.14
2022-10-18T09:17:35.000Z,7.98
2022-10-18T09:22:35.000Z,7.98
2022-10-18T09:27:35.000Z,7.94
2022-10-18T09:32:34.000Z,8.03
2022-10-18T09:37:35.000Z,8.27
2022-10-18T09:42:35.000Z,8.38
2022-10-18T09:47:34.000Z,8.63
2022-10-18T09:52:34.000Z,8.62
2022-10-18T09:57:35.000Z,8.72
2022-10-18T10:02:35.000Z,8.86
2022-10-18T10:07:34.000Z,8.86
2022-10-18T10:12:35.000Z,9.04
2022-10-18T10:17:34.000Z,9.1
2022-10-18T10:22:35.000Z,9.1
2022-10-18T10:27:35.000Z,9.1
2022-10-18T10:32:34.000Z,9.27
2022-10-18T10:37:34.000Z,9.23
2022-10-18T10:42:34.000Z,9.33
2022-10-18T10:47:35.000Z,9.35
2022-10-18T10:52:38.000Z,9.44
2022-10-18T10:57:35.000Z,9.55
2022-10-18T11:02:34.000Z,9.73
2022-10-18T11:07:34.000Z,9.8
2022-10-18T11:12:34.000Z,9.83
2022-10-18T11:17:34.000Z,9.84
2022-10-18T11:22:35.000Z,9.84
2022-10-18T11:27:35.000Z,9.92
2022-10-18T11:32:35.000Z,10.01
2022-10-18T11:37:41.000Z,10.04
2022-10-18T11:42:35.000Z,10.07
2022-10-18T11:47:35.000Z,10.1
2022-10-18T11:52:34.000Z,10.09
2022-10-18T11:57:35.000Z,10.09
2022-10-18T12:02:35.000Z,10.17
2022-10-18T12:07:41.000Z,10.21
2022-10-18T12:12:34.000Z,10.41
2022-10-18T12:17:52.000Z,10.63
2022-10-18T12:22:35.000Z,10.94
2022-10-18T12:27:34.000Z,11.13
2022-10-18T12:32:35.000Z,11.26
2022-10-18T12:37:35.000Z,11.26
2022-10-18T12:42:35.000Z,11.5
2022-10-18T12:47:34.000Z,11.68
2022-10-18T12:52:34.000Z,11.81
2022-10-18T12:57:35.000Z,11.96
2022-10-18T13:02:35.000Z,12.11
2022-10-18T13:07:34.000Z,12.25
2022-10-18T13:12:34.000Z,12.35
2022-10-18T13:17:35.000Z,12.4
2022-10-18T13:22:34.000Z,12.5
2022-10-18T13:32:34.000Z,12.64
2022-10-18T13:37:34.000Z,12.68
2022-10-18T13:42:35.000Z,12.7
2022-10-18T13:47:34.000Z,12.75
2022-10-18T13:52:35.000Z,12.76
2022-10-18T13:57:34.000Z,12.77
2022-10-18T14:03:00.000Z,12.74
2022-10-18T14:07:35.000Z,12.75
2022-10-18T14:12:34.000Z,12.59
2022-10-18T14:17:35.000Z,12.54
2022-10-18T14:22:34.000Z,12.57
2022-10-18T14:27:34.000Z,12.58
2022-10-18T14:32:35.000Z,12.58
2022-10-18T14:37:35.000Z,12.57
2022-10-18T14:42:34.000Z,12.6
2022-10-18T14:47:35.000Z,12.62
2022-10-18T14:52:36.000Z,12.51
2022-10-18T14:57:35.000Z,12.4
2022-10-18T15:02:35.000Z,12.32
2022-10-18T15:07:35.000Z,12.33
2022-10-18T15:12:34.000Z,12.37
2022-10-18T15:17:35.000Z,12.41
2022-10-18T15:22:42.000Z,12.37
2022-10-18T15:27:35.000Z,12.34
2022-10-18T15:32:34.000Z,12.29
2022-10-18T15:37:34.000Z,12.34
2022-10-18T15:42:35.000Z,12.33
2022-10-18T15:47:34.000Z,12.33
2022-10-18T15:52:35.000Z,12.29
2022-10-18T15:57:39.000Z,12.18
2022-10-18T16:02:35.000Z,12.14
2022-10-18T16:07:35.000Z,12.1
2022-10-18T16:12:34.000Z,11.98
2022-10-18T16:17:34.000Z,12
2022-10-18T16:22:35.000Z,11.97
2022-10-18T16:27:35.000Z,11.83
2022-10-18T16:32:34.000Z,11.77
2022-10-18T16:37:35.000Z,11.7
2022-10-18T16:42:34.000Z,11.51
2022-10-18T16:47:35.000Z,11.31
2022-10-18T16:52:34.000Z,11.21
2022-10-18T16:57:35.000Z,11.15
2022-10-18T17:02:35.000Z,11.15
2022-10-18T17:07:34.000Z,10.95
2022-10-18T17:12:34.000Z,10.75
2022-10-18T17:17:35.000Z,10.56
2022-10-18T17:22:34.000Z,10.38
2022-10-18T17:27:34.000Z,10.3
2022-10-18T17:32:35.000Z,10.25
2022-10-18T17:47:35.000Z,10.14
2022-10-18T17:52:34.000Z,10.13
2022-10-18T17:57:34.000Z,10.03
2022-10-18T18:02:35.000Z,9.86
2022-10-18T18:07:35.000Z,9.86
2022-10-18T18:12:35.000Z,9.91
2022-10-18T18:17:44.000Z,9.9
2022-10-18T18:22:34.000Z,9.75
2022-10-18T18:27:35.000Z,9.84
2022-10-18T18:32:35.000Z,9.86
2022-10-18T18:37:35.000Z,9.74
2022-10-18T18:42:35.000Z,9.58
2022-10-18T18:47:35.000Z,9.38
2022-10-18T18:52:35.000Z,9.38
2022-10-18T18:57:35.000Z,9.16
2022-10-18T19:02:34.000Z,9.02
2022-10-18T19:07:35.000Z,8.87
2022-10-18T19:12:34.000Z,8.78
2022-10-18T19:17:35.000Z,8.67
2022-10-18T19:22:35.000Z,8.54
2022-10-18T19:27:34.000Z,8.37
2022-10-18T19:32:35.000Z,8.42
2022-10-18T19:37:35.000Z,8.35
2022-10-18T19:42:41.000Z,8.27
2022-10-18T19:47:34.000Z,8.09
2022-10-18T19:57:34.000Z,7.86
2022-10-18T20:02:35.000Z,7.81
2022-10-18T20:07:35.000Z,7.81
2022-10-18T20:12:35.000Z,7.66
2022-10-18T20:17:34.000Z,7.71
2022-10-18T20:22:35.000Z,7.71
2022-10-18T20:27:35.000Z,7.75
2022-10-18T20:32:35.000Z,7.77
2022-10-18T20:37:34.000Z,7.77
2022-10-18T20:42:35.000Z,7.81
2022-10-18T20:47:35.000Z,7.81
2022-10-18T20:52:35.000Z,7.84
2022-10-18T20:57:35.000Z,7.71
2022-10-18T21:02:35.000Z,7.71
2022-10-18T21:07:34.000Z,7.59
2022-10-18T21:12:39.000Z,7.57
2022-10-18T21:22:35.000Z,7.54
2022-10-18T21:27:34.000Z,7.57
2022-10-18T21:37:34.000Z,7.54
2022-10-18T21:42:34.000Z,7.44
2022-10-18T21:47:34.000Z,7.48
2022-10-18T21:52:35.000Z,7.55
2022-10-18T22:02:34.000Z,7.62
2022-10-18T22:07:35.000Z,7.66
2022-10-18T22:12:35.000Z,7.74
2022-10-18T22:17:35.000Z,7.84
2022-10-18T22:22:35.000Z,7.98
2022-10-18T22:27:34.000Z,7.98
2022-10-18T22:32:35.000Z,8
2022-10-18T22:37:35.000Z,8.11
2022-10-18T22:42:35.000Z,8.23
2022-10-18T22:47:35.000Z,8.31
2022-10-18T22:52:35.000Z,8.45
2022-10-18T22:57:34.000Z,8.62
2022-10-18T23:02:35.000Z,8.6
2022-10-18T23:07:34.000Z,8.54
2022-10-18T23:12:35.000Z,8.64
2022-10-18T23:17:34.000Z,8.78
2022-10-18T23:22:34.000Z,8.82
2022-10-18T23:27:34.000Z,8.82
2022-10-18T23:32:34.000Z,8.88
2022-10-18T23:37:35.000Z,8.92
2022-10-18T23:42:35.000Z,8.92
2022-10-18T23:47:34.000Z,8.91
2022-10-18T23:52:35.000Z,9.02
2022-10-18T23:57:35.000Z,9.11
